createdAt,value
2023-05-04T00:02:19.679Z,12.99
2023-05-04T00:04:46.482Z,13.36
2023-05-04T00:07:13.165Z,13.29
2023-05-04T00:09:39.786Z,13.39
2023-05-04T00:12:07.015Z,13.34
2023-05-04T00:14:33.596Z,13.09
2023-05-04T00:17:00.126Z,13.41
2023-05-04T00:19:26.751Z,13.28
2023-05-04T00:21:53.493Z,13.08
2023-05-04T00:24:20.240Z,13.04
2023-05-04T00:26:46.774Z,13.20
2023-05-04T00:29:13.423Z,12.95
2023-05-04T00:31:40.011Z,13.36
2023-05-04T00:34:07.342Z,12.92
2023-05-04T00:36:34.010Z,13.01
2023-05-04T00:39:00.608Z,12.94
2023-05-04T00:41:27.283Z,13.06
2023-05-04T00:43:53.897Z,12.91
2023-05-04T00:46:21.075Z,12.69
2023-05-04T00:48:49.945Z,12.94
2023-05-04T00:51:17.146Z,13.15
2023-05-04T00:53:44.175Z,12.72
2023-05-04T00:56:11.762Z,12.71
2023-05-04T00:58:38.363Z,12.81
2023-05-04T01:01:05.026Z,13.06
2023-05-04T01:03:32.349Z,13.09
2023-05-04T01:06:08.254Z,13.23
2023-05-04T01:08:39.326Z,13.18
2023-05-04T01:11:21.209Z,13.10
2023-05-04T01:13:49.080Z,12.95
2023-05-04T01:16:15.883Z,12.86
2023-05-04T01:18:42.604Z,12.52
2023-05-04T01:21:09.800Z,12.68
2023-05-04T01:23:36.467Z,12.80
2023-05-04T01:26:32.601Z,12.60
2023-05-04T01:29:23.116Z,12.70
2023-05-04T01:31:50.050Z,12.69
2023-05-04T01:34:16.899Z,12.85
2023-05-04T01:36:44.727Z,12.72
2023-05-04T01:39:11.323Z,12.56
2023-05-04T01:41:37.868Z,12.19
2023-05-04T01:44:04.858Z,12.54
2023-05-04T01:46:31.656Z,12.66
2023-05-04T01:48:58.314Z,12.48
2023-05-04T01:51:25.079Z,12.61
2023-05-04T01:53:51.531Z,12.66
2023-05-04T01:56:18.063Z,12.34
2023-05-04T01:58:44.556Z,12.50
2023-05-04T02:01:11.020Z,12.35
2023-05-04T02:03:37.615Z,12.67
2023-05-04T02:06:04.364Z,12.59
2023-05-04T02:08:31.106Z,12.65
2023-05-04T02:10:57.577Z,12.52
2023-05-04T02:13:24.179Z,12.43
2023-05-04T02:15:50.718Z,12.49
2023-05-04T02:18:17.214Z,12.52
2023-05-04T02:20:43.684Z,12.64
2023-05-04T02:23:10.423Z,12.34
2023-05-04T02:25:39.477Z,12.30
2023-05-04T02:28:06.177Z,11.71
2023-05-04T02:30:32.664Z,11.88
2023-05-04T02:32:59.149Z,12.18
2023-05-04T02:35:25.798Z,12.03
2023-05-04T02:37:52.228Z,12.21
2023-05-04T02:40:19.189Z,12.29
2023-05-04T02:42:45.779Z,12.14
2023-05-04T02:45:12.742Z,12.13
2023-05-04T02:47:39.292Z,12.36
2023-05-04T02:50:06.700Z,12.33
2023-05-04T02:52:33.426Z,12.20
2023-05-04T02:55:01.098Z,12.01
2023-05-04T02:57:27.854Z,11.59
2023-05-04T02:59:54.335Z,11.72
2023-05-04T03:02:20.913Z,11.66
2023-05-04T03:04:47.451Z,11.79
2023-05-04T03:07:14.047Z,11.52
2023-05-04T03:09:40.960Z,11.72
2023-05-04T03:12:07.472Z,11.78
2023-05-04T03:14:33.926Z,11.89
2023-05-04T03:17:00.526Z,11.97
2023-05-04T03:19:27.213Z,11.91
2023-05-04T03:21:53.639Z,11.88
2023-05-04T03:24:20.249Z,12.15
2023-05-04T03:26:47.274Z,12.05
2023-05-04T03:29:14.439Z,12.20
2023-05-04T03:31:41.005Z,12.26
2023-05-04T03:34:09.595Z,12.34
2023-05-04T03:36:36.260Z,12.38
2023-05-04T03:39:02.945Z,12.40
2023-05-04T03:41:29.444Z,12.39
2023-05-04T03:43:56.132Z,12.44
2023-05-04T03:46:22.713Z,12.33
2023-05-04T03:48:49.173Z,12.41
2023-05-04T03:51:15.726Z,12.28
2023-05-04T03:53:44.682Z,12.33
2023-05-04T03:56:11.731Z,12.33
2023-05-04T03:58:38.198Z,12.34
2023-05-04T04:01:05.209Z,12.30
2023-05-04T04:03:32.013Z,12.30
2023-05-04T04:05:58.771Z,12.31
2023-05-04T04:08:25.335Z,12.22
2023-05-04T04:10:51.798Z,12.05
2023-05-04T04:13:18.362Z,12.01
2023-05-04T04:15:46.488Z,11.98
2023-05-04T04:18:13.127Z,12.17
2023-05-04T04:20:39.843Z,11.84
2023-05-04T04:23:06.386Z,12.01
2023-05-04T04:25:32.894Z,12.25
2023-05-04T04:27:59.538Z,12.32
2023-05-04T04:30:26.034Z,12.35
2023-05-04T04:32:53.743Z,12.42
2023-05-04T04:35:20.296Z,12.43
2023-05-04T04:37:47.103Z,12.15
2023-05-04T04:40:13.623Z,12.46
2023-05-04T04:42:40.300Z,12.56
2023-05-04T04:45:07.595Z,11.81
2023-05-04T04:47:34.123Z,12.47
2023-05-04T04:50:00.648Z,12.28
2023-05-04T04:52:27.126Z,12.52
2023-05-04T04:54:53.612Z,12.35
2023-05-04T04:57:20.175Z,12.41
2023-05-04T04:59:47.220Z,12.29
2023-05-04T05:02:13.736Z,12.32
2023-05-04T05:04:41.450Z,12.58
2023-05-04T05:07:10.532Z,12.41
2023-05-04T05:09:37.493Z,12.77
2023-05-04T05:12:07.233Z,12.75
2023-05-04T05:14:33.871Z,12.82
2023-05-04T05:17:00.587Z,12.72
2023-05-04T05:19:27.519Z,12.72
2023-05-04T05:21:54.396Z,12.79
2023-05-04T05:24:20.875Z,13.00
2023-05-04T05:26:47.575Z,13.08
2023-05-04T05:29:14.198Z,12.98
2023-05-04T05:31:41.236Z,12.91
2023-05-04T05:34:07.760Z,12.98
2023-05-04T05:36:34.590Z,13.36
2023-05-04T05:39:01.451Z,13.21
2023-05-04T05:41:27.906Z,12.74
2023-05-04T05:43:54.363Z,13.04
2023-05-04T05:46:22.681Z,13.44
2023-05-04T05:48:49.199Z,13.27
2023-05-04T05:51:15.774Z,13.03
2023-05-04T05:53:42.941Z,13.17
2023-05-04T05:56:09.404Z,13.05
2023-05-04T05:58:36.402Z,12.91
2023-05-04T06:01:03.586Z,12.87
2023-05-04T06:03:30.127Z,13.01
2023-05-04T06:05:56.672Z,13.48
2023-05-04T06:08:23.170Z,13.08
2023-05-04T06:10:51.473Z,13.44
2023-05-04T06:13:18.029Z,13.49
2023-05-04T06:15:54.707Z,13.50
2023-05-04T06:18:21.701Z,14.23
2023-05-04T06:20:48.435Z,14.51
2023-05-04T06:23:15.629Z,14.03
2023-05-04T06:25:42.296Z,14.16
2023-05-04T06:28:09.259Z,14.64
2023-05-04T06:30:36.563Z,14.80
2023-05-04T06:33:04.371Z,14.69
2023-05-04T06:35:31.477Z,14.19
2023-05-04T06:37:58.421Z,14.46
2023-05-04T06:40:26.201Z,14.86
2023-05-04T06:42:52.869Z,14.69
2023-05-04T06:45:19.552Z,14.79
2023-05-04T06:47:46.684Z,14.71
2023-05-04T06:50:14.219Z,16.01
2023-05-04T06:52:43.100Z,15.96
2023-05-04T06:55:09.844Z,15.88
2023-05-04T06:57:36.843Z,15.34
2023-05-04T07:00:04.633Z,15.74
2023-05-04T07:02:31.283Z,15.53
2023-05-04T07:04:57.975Z,16.10
2023-05-04T07:07:24.768Z,16.03
2023-05-04T07:09:51.596Z,16.12
2023-05-04T07:12:18.574Z,15.92
2023-05-04T07:14:45.074Z,15.95
2023-05-04T07:17:11.827Z,16.15
2023-05-04T07:19:38.468Z,15.88
2023-05-04T07:22:05.165Z,16.01
2023-05-04T07:24:31.878Z,16.17
2023-05-04T07:26:59.165Z,16.27
2023-05-04T07:29:26.441Z,16.54
2023-05-04T07:31:53.364Z,16.52
2023-05-04T07:34:20.202Z,16.29
2023-05-04T07:36:48.010Z,16.60
2023-05-04T07:39:16.483Z,16.43
2023-05-04T07:41:43.046Z,16.05
2023-05-04T07:44:11.178Z,16.50
2023-05-04T07:46:38.671Z,16.47
2023-05-04T07:49:05.870Z,16.26
2023-05-04T07:51:32.347Z,17.05
2023-05-04T07:53:59.082Z,17.19
2023-05-04T07:56:25.571Z,17.52
2023-05-04T07:58:52.752Z,17.81
2023-05-04T08:01:19.339Z,17.99
2023-05-04T08:03:46.005Z,17.73
2023-05-04T08:06:13.166Z,18.39
2023-05-04T08:08:39.915Z,18.86
2023-05-04T08:11:19.169Z,19.01
2023-05-04T08:13:50.619Z,19.26
2023-05-04T08:16:17.472Z,19.90
2023-05-04T08:18:44.026Z,19.91
2023-05-04T08:21:10.640Z,20.05
2023-05-04T08:23:37.134Z,20.27
2023-05-04T08:26:04.496Z,20.64
2023-05-04T08:28:33.112Z,20.58
2023-05-04T08:30:59.561Z,21.22
2023-05-04T08:33:26.041Z,20.87
2023-05-04T08:35:52.597Z,20.83
2023-05-04T08:38:19.075Z,21.48
2023-05-04T08:40:45.616Z,22.24
2023-05-04T08:43:12.290Z,22.00
2023-05-04T08:45:39.536Z,22.53
2023-05-04T08:48:07.285Z,23.58
2023-05-04T08:50:34.966Z,23.62
2023-05-04T08:53:03.889Z,23.37
2023-05-04T08:55:33.303Z,24.27
2023-05-04T08:58:02.096Z,24.16
2023-05-04T09:00:29.156Z,25.10
2023-05-04T09:02:56.446Z,25.03
2023-05-04T09:05:23.245Z,25.26
2023-05-04T09:07:52.406Z,25.86
2023-05-04T09:10:20.079Z,25.79
2023-05-04T09:12:47.239Z,26.84
2023-05-04T09:15:18.538Z,27.37
2023-05-04T09:17:58.826Z,27.40
2023-05-04T09:20:29.710Z,29.19
2023-05-04T09:23:08.970Z,31.92
2023-05-04T09:25:56.271Z,33.84
2023-05-04T09:28:43.587Z,36.65
2023-05-04T09:31:11.735Z,38.01
2023-05-04T09:33:38.260Z,40.78
2023-05-04T09:36:15.858Z,42.52
2023-05-04T09:38:42.461Z,41.71
2023-05-04T09:41:09.300Z,41.65
2023-05-04T09:43:40.290Z,41.27
2023-05-04T09:46:08.503Z,42.66
2023-05-04T09:48:35.156Z,42.22
2023-05-04T09:51:06.326Z,40.96
2023-05-04T09:53:33.268Z,43.28
2023-05-04T09:56:13.472Z,44.03
2023-05-04T09:58:42.981Z,43.18
2023-05-04T10:01:09.625Z,44.43
2023-05-04T10:03:36.501Z,44.82
2023-05-04T10:06:05.708Z,44.82
2023-05-04T10:08:33.252Z,42.88
2023-05-04T10:10:59.766Z,40.61
2023-05-04T10:13:26.414Z,40.06
2023-05-04T10:16:14.190Z,41.88
2023-05-04T10:19:19.204Z,41.88
2023-05-04T10:21:52.359Z,41.89
2023-05-04T10:24:51.146Z,42.28
2023-05-04T10:27:19.092Z,42.23
2023-05-04T10:29:51.208Z,44.45
2023-05-04T10:32:22.064Z,43.25
2023-05-04T10:34:48.850Z,42.50
2023-05-04T10:37:20.198Z,44.85
2023-05-04T10:39:54.081Z,46.13
2023-05-04T10:42:21.401Z,47.37
2023-05-04T10:44:55.454Z,46.65
2023-05-04T10:47:35.719Z,50.58
2023-05-04T10:50:11.025Z,44.55
2023-05-04T10:52:54.049Z,48.48
2023-05-04T10:55:21.455Z,48.28
2023-05-04T10:57:52.674Z,48.37
2023-05-04T11:00:19.878Z,47.15
2023-05-04T11:02:48.216Z,42.74
2023-05-04T11:05:19.448Z,45.64
2023-05-04T11:07:47.214Z,44.77
2023-05-04T11:10:22.355Z,45.91
2023-05-04T11:12:49.004Z,48.42
2023-05-04T11:15:15.780Z,49.30
2023-05-04T11:17:52.781Z,47.42
2023-05-04T11:20:23.545Z,47.76
2023-05-04T11:22:50.456Z,45.52
2023-05-04T11:25:17.475Z,46.69
2023-05-04T11:27:44.296Z,47.81
2023-05-04T11:30:11.159Z,47.48
2023-05-04T11:32:43.601Z,46.37
2023-05-04T11:35:18.695Z,47.82
2023-05-04T11:37:46.779Z,48.03
2023-05-04T11:40:23.194Z,46.41
2023-05-04T11:42:50.134Z,46.19
2023-05-04T11:45:18.762Z,47.45
2023-05-04T11:47:45.998Z,47.77
2023-05-04T11:50:14.242Z,47.95
2023-05-04T11:52:41.478Z,46.44
2023-05-04T11:55:10.079Z,48.27
2023-05-04T11:57:37.727Z,47.09
2023-05-04T12:00:06.145Z,44.16
2023-05-04T12:02:33.734Z,46.25
2023-05-04T12:05:00.801Z,46.66
2023-05-04T12:07:28.001Z,45.79
2023-05-04T12:09:54.861Z,44.81
2023-05-04T12:12:21.493Z,41.52
2023-05-04T12:14:48.618Z,39.22
2023-05-04T12:17:15.754Z,35.56
2023-05-04T12:19:55.913Z,32.24
2023-05-04T12:22:29.784Z,31.32
2023-05-04T12:25:00.252Z,29.84
2023-05-04T12:27:27.721Z,28.90
2023-05-04T12:29:54.828Z,28.35
2023-05-04T12:32:21.528Z,26.86
2023-05-04T12:34:48.059Z,26.58
2023-05-04T12:37:14.561Z,26.73
2023-05-04T12:39:41.086Z,26.76
2023-05-04T12:42:07.590Z,27.16
2023-05-04T12:44:34.593Z,26.87
2023-05-04T12:47:01.453Z,26.68
2023-05-04T12:49:28.272Z,26.20
2023-05-04T12:51:54.936Z,26.50
2023-05-04T12:54:21.643Z,27.00
2023-05-04T12:56:48.115Z,26.58
2023-05-04T12:59:15.203Z,26.20
2023-05-04T13:01:41.676Z,26.58
2023-05-04T13:04:08.218Z,25.35
2023-05-04T13:06:34.783Z,26.06
2023-05-04T13:09:05.848Z,26.24
2023-05-04T13:11:32.522Z,25.93
2023-05-04T13:13:59.016Z,26.21
2023-05-04T13:16:27.874Z,25.78
2023-05-04T13:18:55.449Z,26.24
2023-05-04T13:21:21.951Z,26.33
2023-05-04T13:23:48.492Z,26.17
2023-05-04T13:26:15.381Z,26.31
2023-05-04T13:28:43.187Z,25.91
2023-05-04T13:31:10.295Z,26.14
2023-05-04T13:33:39.798Z,26.48
2023-05-04T13:36:06.934Z,26.48
2023-05-04T13:38:33.645Z,26.59
2023-05-04T13:41:00.189Z,26.57
2023-05-04T13:43:26.960Z,26.58
2023-05-04T13:45:53.615Z,26.29
2023-05-04T13:48:20.362Z,27.09
2023-05-04T13:50:47.166Z,26.64
2023-05-04T13:53:13.745Z,26.92
2023-05-04T13:55:40.501Z,26.85
2023-05-04T13:58:07.280Z,26.98
2023-05-04T14:00:33.740Z,27.04
2023-05-04T14:03:00.664Z,26.97
2023-05-04T14:05:27.214Z,26.94
2023-05-04T14:07:53.700Z,26.30
2023-05-04T14:10:20.730Z,26.26
2023-05-04T14:12:47.234Z,26.32
2023-05-04T14:15:14.037Z,26.70
2023-05-04T14:17:40.494Z,26.61
2023-05-04T14:20:08.781Z,26.61
2023-05-04T14:22:37.889Z,26.66
2023-05-04T14:25:05.825Z,26.70
2023-05-04T14:27:35.315Z,26.47
2023-05-04T14:30:02.832Z,25.70
2023-05-04T14:32:29.361Z,26.38
2023-05-04T14:35:12.422Z,26.78
2023-05-04T14:37:39.930Z,26.75
2023-05-04T14:40:10.888Z,27.03
2023-05-04T14:42:38.310Z,27.53
2023-05-04T14:45:06.275Z,27.36
2023-05-04T14:47:33.700Z,27.50
2023-05-04T14:50:03.522Z,26.50
2023-05-04T14:52:29.979Z,27.00
2023-05-04T14:54:56.504Z,26.96
2023-05-04T14:57:23.092Z,27.17
2023-05-04T14:59:49.725Z,26.48
2023-05-04T15:02:17.584Z,26.63
2023-05-04T15:04:45.199Z,26.28
2023-05-04T15:07:14.293Z,26.25
2023-05-04T15:09:40.934Z,26.25
2023-05-04T15:12:08.606Z,26.30
2023-05-04T15:14:38.131Z,26.22
2023-05-04T15:17:05.046Z,26.69
2023-05-04T15:19:31.786Z,26.67
2023-05-04T15:21:58.196Z,26.65
2023-05-04T15:24:24.711Z,27.01
2023-05-04T15:26:51.221Z,26.66
2023-05-04T15:29:17.735Z,26.85
2023-05-04T15:31:44.382Z,26.37
2023-05-04T15:34:10.949Z,26.68
2023-05-04T15:36:37.374Z,26.63
2023-05-04T15:39:05.513Z,26.29
2023-05-04T15:41:31.953Z,26.12
2023-05-04T15:43:58.608Z,25.97
2023-05-04T15:46:25.300Z,26.33
2023-05-04T15:48:51.748Z,26.54
2023-05-04T15:51:18.897Z,27.06
2023-05-04T15:53:45.451Z,26.76
2023-05-04T15:56:13.240Z,26.87
2023-05-04T15:58:39.693Z,27.54
2023-05-04T16:01:09.244Z,26.86
2023-05-04T16:03:37.340Z,27.23
2023-05-04T16:06:05.621Z,27.10
2023-05-04T16:08:32.242Z,26.66
2023-05-04T16:10:58.681Z,26.69
2023-05-04T16:13:25.314Z,26.43
2023-05-04T16:15:52.531Z,26.45
2023-05-04T16:18:19.479Z,26.44
2023-05-04T16:20:47.167Z,26.20
2023-05-04T16:23:15.954Z,26.22
2023-05-04T16:25:42.985Z,26.34
2023-05-04T16:28:10.214Z,25.63
2023-05-04T16:30:36.962Z,25.75
2023-05-04T16:33:03.852Z,25.38
2023-05-04T16:35:31.432Z,25.43
2023-05-04T16:37:58.779Z,25.68
2023-05-04T16:40:25.705Z,25.44
2023-05-04T16:42:52.427Z,25.23
2023-05-04T16:45:19.428Z,25.39
2023-05-04T16:47:46.403Z,25.19
2023-05-04T16:50:13.527Z,25.20
2023-05-04T16:52:41.298Z,25.47
2023-05-04T16:55:11.328Z,25.30
2023-05-04T16:57:38.525Z,25.73
2023-05-04T17:00:06.705Z,25.53
2023-05-04T17:02:33.597Z,25.68
2023-05-04T17:05:00.431Z,25.67
2023-05-04T17:07:27.158Z,25.51
2023-05-04T17:09:53.699Z,25.67
2023-05-04T17:12:20.206Z,25.61
2023-05-04T17:14:47.223Z,25.65
2023-05-04T17:17:13.686Z,25.89
2023-05-04T17:19:42.958Z,26.20
2023-05-04T17:22:11.064Z,26.38
2023-05-04T17:24:37.544Z,26.47
2023-05-04T17:27:04.546Z,26.82
2023-05-04T17:29:31.283Z,26.79
2023-05-04T17:31:57.860Z,26.66
2023-05-04T17:34:24.406Z,26.55
2023-05-04T17:36:50.953Z,26.36
2023-05-04T17:39:18.747Z,26.37
2023-05-04T17:41:48.756Z,26.06
2023-05-04T17:44:16.333Z,26.28
2023-05-04T17:46:43.487Z,26.23
2023-05-04T17:49:10.152Z,26.30
2023-05-04T17:51:37.362Z,26.40
2023-05-04T17:54:03.897Z,26.13
2023-05-04T17:56:30.589Z,26.29
2023-05-04T17:58:57.080Z,26.36
2023-05-04T18:01:23.591Z,26.36
2023-05-04T18:03:50.349Z,26.31
2023-05-04T18:06:16.984Z,26.25
2023-05-04T18:08:43.502Z,26.08
2023-05-04T18:11:09.969Z,26.09
2023-05-04T18:13:36.413Z,26.02
2023-05-04T18:16:03.037Z,25.90
2023-05-04T18:18:29.784Z,25.79
2023-05-04T18:21:00.621Z,25.57
2023-05-04T18:23:27.125Z,25.42
2023-05-04T18:25:53.547Z,25.38
2023-05-04T18:28:20.041Z,25.32
2023-05-04T18:30:46.457Z,25.29
2023-05-04T18:33:12.903Z,25.18
2023-05-04T18:35:39.340Z,24.94
2023-05-04T18:38:06.048Z,24.96
2023-05-04T18:40:32.614Z,24.77
2023-05-04T18:42:59.290Z,24.67
2023-05-04T18:45:25.910Z,24.62
2023-05-04T18:47:52.647Z,24.46
2023-05-04T18:50:19.300Z,24.40
2023-05-04T18:52:46.275Z,24.28
2023-05-04T18:55:12.761Z,24.21
2023-05-04T18:57:39.327Z,24.13
2023-05-04T19:00:07.014Z,24.06
2023-05-04T19:02:33.791Z,23.85
2023-05-04T19:05:00.506Z,23.50
2023-05-04T19:07:27.015Z,23.40
2023-05-04T19:09:53.783Z,23.44
2023-05-04T19:12:20.295Z,22.89
2023-05-04T19:14:46.902Z,22.57
2023-05-04T19:17:14.744Z,22.82
2023-05-04T19:19:41.224Z,22.71
2023-05-04T19:22:08.163Z,22.87
2023-05-04T19:24:36.208Z,22.84
2023-05-04T19:27:04.373Z,22.92
2023-05-04T19:29:30.923Z,22.42
2023-05-04T19:31:59.530Z,22.42
2023-05-04T19:34:27.957Z,22.47
2023-05-04T19:36:54.375Z,22.08
2023-05-04T19:39:21.013Z,22.05
2023-05-04T19:41:47.735Z,22.17
2023-05-04T19:44:14.196Z,21.81
2023-05-04T19:46:41.417Z,21.84
2023-05-04T19:49:08.049Z,21.90
2023-05-04T19:51:34.529Z,22.08
2023-05-04T19:54:00.977Z,21.59
2023-05-04T19:56:27.592Z,21.35
2023-05-04T19:58:54.306Z,21.47
2023-05-04T20:01:20.935Z,21.70
2023-05-04T20:03:47.619Z,21.72
2023-05-04T20:06:14.154Z,21.68
2023-05-04T20:08:40.984Z,22.01
2023-05-04T20:11:07.607Z,21.88
2023-05-04T20:13:34.137Z,22.12
2023-05-04T20:16:01.788Z,22.24
2023-05-04T20:18:28.273Z,22.18
2023-05-04T20:20:55.122Z,22.21
2023-05-04T20:23:22.109Z,22.17
2023-05-04T20:25:48.865Z,22.16
2023-05-04T20:28:16.443Z,22.18
2023-05-04T20:30:42.898Z,22.19
2023-05-04T20:33:09.462Z,22.14
2023-05-04T20:35:36.054Z,22.09
2023-05-04T20:38:02.556Z,21.97
2023-05-04T20:40:29.020Z,21.93
2023-05-04T20:42:55.658Z,21.77
2023-05-04T20:45:22.332Z,21.79
2023-05-04T20:47:49.304Z,21.80
2023-05-04T20:50:17.962Z,21.82
2023-05-04T20:52:44.853Z,21.84
2023-05-04T20:55:11.466Z,21.85
2023-05-04T20:57:38.042Z,21.76
2023-05-04T21:00:05.237Z,21.80
2023-05-04T21:02:31.948Z,21.77
2023-05-04T21:04:58.569Z,21.85
2023-05-04T21:07:25.500Z,21.82
2023-05-04T21:09:58.639Z,21.68
2023-05-04T21:12:25.881Z,21.71
2023-05-04T21:14:52.518Z,21.63
2023-05-04T21:17:19.105Z,21.73
2023-05-04T21:19:45.643Z,21.64
2023-05-04T21:22:12.424Z,21.68
2023-05-04T21:24:38.868Z,21.61
2023-05-04T21:27:05.419Z,21.60
2023-05-04T21:29:31.954Z,21.51
2023-05-04T21:31:58.462Z,21.34
2023-05-04T21:34:25.114Z,21.42
2023-05-04T21:36:51.694Z,21.28
2023-05-04T21:39:18.250Z,21.21
2023-05-04T21:41:44.929Z,20.96
2023-05-04T21:44:11.565Z,20.92
2023-05-04T21:46:38.089Z,21.02
2023-05-04T21:49:04.659Z,20.94
2023-05-04T21:51:31.638Z,20.86
2023-05-04T21:53:58.160Z,20.83
2023-05-04T21:56:24.633Z,20.39
2023-05-04T21:58:51.196Z,20.63
2023-05-04T22:01:18.322Z,20.10
2023-05-04T22:03:45.075Z,19.70
2023-05-04T22:06:11.945Z,20.20
2023-05-04T22:08:38.517Z,20.15
2023-05-04T22:11:05.170Z,20.23
2023-05-04T22:13:31.659Z,20.12
2023-05-04T22:15:58.209Z,19.96
2023-05-04T22:18:24.766Z,20.18
2023-05-04T22:20:51.864Z,19.90
2023-05-04T22:23:18.369Z,19.95
2023-05-04T22:25:44.895Z,19.97
2023-05-04T22:28:11.420Z,19.85
2023-05-04T22:30:37.974Z,20.05
2023-05-04T22:33:04.738Z,19.90
2023-05-04T22:35:31.555Z,20.18
2023-05-04T22:37:58.362Z,19.74
2023-05-04T22:40:24.972Z,19.93
2023-05-04T22:42:51.447Z,19.83
2023-05-04T22:45:18.329Z,20.04
2023-05-04T22:47:46.198Z,19.86
2023-05-04T22:50:13.608Z,20.08
2023-05-04T22:52:40.428Z,20.00
2023-05-04T22:55:08.081Z,19.77
2023-05-04T22:57:35.087Z,19.83
2023-05-04T23:00:01.700Z,20.05
2023-05-04T23:02:28.423Z,20.16
2023-05-04T23:04:55.180Z,20.05
2023-05-04T23:07:21.642Z,20.14
2023-05-04T23:09:48.116Z,20.20
2023-05-04T23:12:15.352Z,20.07
2023-05-04T23:14:41.959Z,20.18
2023-05-04T23:17:09.367Z,20.18
2023-05-04T23:19:36.159Z,20.22
2023-05-04T23:22:02.618Z,20.12
2023-05-04T23:24:29.131Z,20.27
2023-05-04T23:26:55.776Z,20.32
2023-05-04T23:29:22.278Z,20.30
2023-05-04T23:31:49.122Z,20.31
2023-05-04T23:34:16.138Z,20.29
2023-05-04T23:36:42.704Z,20.17
2023-05-04T23:39:09.295Z,20.22
2023-05-04T23:41:35.836Z,20.15
2023-05-04T23:44:03.314Z,19.97
2023-05-04T23:46:29.756Z,19.93
2023-05-04T23:48:56.502Z,19.93
2023-05-04T23:51:22.949Z,20.00
2023-05-04T23:53:49.413Z,19.98
2023-05-04T23:56:15.890Z,19.87
2023-05-04T23:58:42.496Z,19.99
